createdAt,value
2023-01-13T00:02:02.084Z,0.68
2023-01-13T00:04:36.251Z,0.60
2023-01-13T00:07:09.065Z,0.60
2023-01-13T00:09:41.896Z,0.57
2023-01-13T00:12:14.938Z,0.60
2023-01-13T00:14:47.762Z,0.60
2023-01-13T00:17:20.544Z,0.57
2023-01-13T00:19:54.689Z,0.85
2023-01-13T00:22:27.431Z,0.37
2023-01-13T00:25:01.406Z,0.88
2023-01-13T00:27:35.505Z,0.75
2023-01-13T00:30:10.224Z,0.50
2023-01-13T00:32:43.077Z,0.75
2023-01-13T00:35:17.530Z,1.08
2023-01-13T00:37:50.333Z,1.00
2023-01-13T00:40:23.114Z,0.90
2023-01-13T00:43:13.295Z,1.38
2023-01-13T00:45:46.517Z,1.30
2023-01-13T00:48:19.832Z,0.80
2023-01-13T00:50:57.767Z,1.30
2023-01-13T00:53:34.744Z,1.10
2023-01-13T00:56:09.875Z,1.30
2023-01-13T00:58:44.155Z,1.20
2023-01-13T01:01:19.740Z,1.45
2023-01-13T01:03:54.281Z,1.20
2023-01-13T01:06:29.299Z,1.10
2023-01-13T01:09:02.335Z,1.00
2023-01-13T01:11:35.283Z,0.77
2023-01-13T01:14:08.727Z,1.20
2023-01-13T01:16:42.586Z,1.35
2023-01-13T01:19:15.336Z,1.27
2023-01-13T01:21:49.454Z,1.38
2023-01-13T01:24:22.506Z,1.33
2023-01-13T01:26:55.255Z,1.98
2023-01-13T01:29:28.082Z,1.65
2023-01-13T01:32:00.882Z,1.60
2023-01-13T01:34:34.000Z,1.50
2023-01-13T01:37:08.158Z,1.52
2023-01-13T01:39:40.926Z,2.05
2023-01-13T01:42:34.867Z,1.67
2023-01-13T01:45:16.006Z,2.30
2023-01-13T01:47:52.105Z,2.80
2023-01-13T01:50:25.186Z,1.50
2023-01-13T01:53:06.407Z,1.75
2023-01-13T01:55:39.663Z,1.75
2023-01-13T01:58:16.290Z,1.40
2023-01-13T02:00:49.590Z,2.20
2023-01-13T02:03:23.167Z,1.85
2023-01-13T02:05:56.018Z,1.95
2023-01-13T02:08:30.345Z,2.30
2023-01-13T02:11:03.075Z,2.15
2023-01-13T02:13:34.923Z,1.88
2023-01-13T02:16:16.228Z,1.42
2023-01-13T02:18:57.706Z,1.85
2023-01-13T02:22:06.748Z,2.10
2023-01-13T02:25:02.617Z,2.10
2023-01-13T02:28:06.931Z,2.30
2023-01-13T02:31:06.551Z,2.03
2023-01-13T02:33:51.526Z,1.90
2023-01-13T02:36:39.221Z,2.30
2023-01-13T02:39:18.120Z,2.13
2023-01-13T02:42:18.816Z,1.95
2023-01-13T02:44:56.747Z,2.42
2023-01-13T02:47:33.486Z,2.58
2023-01-13T02:50:12.074Z,1.58
2023-01-13T02:52:50.363Z,2.08
2023-01-13T02:55:30.996Z,1.90
2023-01-13T02:58:07.129Z,1.98
2023-01-13T03:00:41.254Z,2.42
2023-01-13T03:03:15.550Z,2.17
2023-01-13T03:05:52.968Z,1.83
2023-01-13T03:08:39.510Z,2.83
2023-01-13T03:11:14.242Z,2.08
2023-01-13T03:14:12.204Z,2.05
2023-01-13T03:16:57.508Z,2.00
2023-01-13T03:19:40.555Z,2.60
2023-01-13T03:22:23.094Z,3.65
2023-01-13T03:25:01.902Z,2.42
2023-01-13T03:27:45.860Z,2.22
2023-01-13T03:30:22.286Z,2.13
2023-01-13T03:32:59.338Z,2.63
2023-01-13T03:35:38.363Z,2.42
2023-01-13T03:38:15.984Z,3.17
2023-01-13T03:40:54.597Z,3.42
2023-01-13T03:43:50.360Z,2.58
2023-01-13T03:49:03.051Z,2.92
2023-01-13T03:51:42.209Z,2.45
2023-01-13T03:54:18.274Z,2.42
2023-01-13T03:56:56.395Z,2.47
2023-01-13T03:59:34.548Z,2.63
2023-01-13T04:02:11.916Z,2.00
2023-01-13T04:04:51.078Z,2.05
2023-01-13T04:07:33.850Z,2.53
2023-01-13T04:10:10.192Z,3.47
2023-01-13T04:13:01.832Z,3.95
2023-01-13T04:15:37.422Z,1.83
2023-01-13T04:18:13.293Z,2.83
2023-01-13T04:20:48.357Z,2.58
2023-01-13T04:23:24.067Z,2.53
2023-01-13T04:25:57.621Z,4.65
2023-01-13T04:28:30.396Z,2.40
2023-01-13T04:31:03.239Z,3.20
2023-01-13T04:33:35.993Z,3.17
2023-01-13T04:36:09.414Z,2.17
2023-01-13T04:38:43.761Z,2.88
2023-01-13T04:41:16.507Z,4.38
2023-01-13T04:43:49.484Z,2.83
2023-01-13T04:46:22.347Z,2.03
2023-01-13T04:48:55.142Z,2.55
2023-01-13T04:51:27.929Z,2.22
2023-01-13T04:54:02.074Z,2.50
2023-01-13T04:56:34.837Z,2.07
2023-01-13T04:59:07.611Z,1.77
2023-01-13T05:01:40.984Z,1.90
2023-01-13T05:04:15.385Z,1.80
2023-01-13T05:06:48.165Z,2.28
2023-01-13T05:09:22.600Z,2.60
2023-01-13T05:12:09.288Z,2.25
2023-01-13T05:14:59.906Z,1.42
2023-01-13T05:17:33.533Z,1.73
2023-01-13T05:20:07.500Z,2.58
2023-01-13T05:22:57.700Z,3.78
2023-01-13T05:25:31.917Z,1.90
2023-01-13T05:28:04.935Z,1.90
2023-01-13T05:30:39.156Z,2.05
2023-01-13T05:33:12.448Z,1.48
2023-01-13T05:35:47.986Z,1.48
2023-01-13T05:38:20.797Z,1.80
2023-01-13T05:41:12.325Z,2.33
2023-01-13T05:43:45.211Z,1.60
2023-01-13T05:46:18.260Z,2.25
2023-01-13T05:48:51.183Z,2.65
2023-01-13T05:51:26.254Z,1.88
2023-01-13T05:53:59.246Z,2.60
2023-01-13T05:56:33.583Z,1.92
2023-01-13T05:59:07.098Z,3.08
2023-01-13T06:01:39.878Z,2.50
2023-01-13T06:04:12.686Z,2.25
2023-01-13T06:06:45.455Z,2.20
2023-01-13T06:09:18.436Z,3.28
2023-01-13T06:11:52.766Z,3.08
2023-01-13T06:14:25.524Z,2.13
2023-01-13T06:16:58.316Z,2.38
2023-01-13T06:19:31.568Z,2.50
2023-01-13T06:22:13.479Z,2.63
2023-01-13T06:24:46.834Z,2.10
2023-01-13T06:27:22.547Z,2.45
2023-01-13T06:29:56.600Z,2.13
2023-01-13T06:32:35.531Z,2.47
2023-01-13T06:35:12.919Z,2.47
2023-01-13T06:37:48.796Z,1.58
2023-01-13T06:40:22.334Z,3.03
2023-01-13T06:43:17.843Z,1.67
2023-01-13T06:45:53.727Z,2.17
2023-01-13T06:48:32.861Z,2.25
2023-01-13T06:51:06.058Z,1.52
2023-01-13T06:53:38.853Z,2.00
2023-01-13T06:56:11.698Z,2.65
2023-01-13T06:58:45.865Z,1.23
2023-01-13T07:01:18.765Z,1.53
2023-01-13T07:03:51.768Z,2.30
2023-01-13T07:06:24.544Z,2.00
2023-01-13T07:08:57.551Z,2.13
2023-01-13T07:11:30.334Z,3.75
2023-01-13T07:14:22.347Z,2.20
2023-01-13T07:16:55.440Z,2.70
2023-01-13T07:19:28.313Z,1.98
2023-01-13T07:22:01.085Z,2.67
2023-01-13T07:24:33.922Z,1.92
2023-01-13T07:27:06.679Z,2.38
2023-01-13T07:29:40.884Z,2.80
2023-01-13T07:32:15.558Z,2.78
2023-01-13T07:34:48.660Z,2.40
2023-01-13T07:37:21.414Z,2.28
2023-01-13T07:39:54.222Z,2.47
2023-01-13T07:42:59.170Z,2.03
2023-01-13T07:45:33.390Z,1.73
2023-01-13T07:48:06.758Z,2.03
2023-01-13T07:50:39.602Z,2.20
2023-01-13T07:53:12.563Z,1.88
2023-01-13T07:55:45.364Z,2.05
2023-01-13T07:58:18.143Z,2.60
2023-01-13T08:00:53.668Z,2.28
2023-01-13T08:03:27.965Z,1.70
2023-01-13T08:06:02.159Z,2.17
2023-01-13T08:08:35.291Z,1.85
2023-01-13T08:11:09.438Z,1.80
2023-01-13T08:13:42.223Z,2.67
2023-01-13T08:16:16.796Z,2.92
2023-01-13T08:18:49.623Z,1.98
2023-01-13T08:21:22.375Z,1.90
2023-01-13T08:23:55.431Z,2.42
2023-01-13T08:26:28.387Z,2.25
2023-01-13T08:29:01.150Z,2.97
2023-01-13T08:31:35.331Z,1.88
2023-01-13T08:34:08.095Z,2.33
2023-01-13T08:36:41.124Z,2.13
2023-01-13T08:39:13.860Z,2.22
2023-01-13T08:41:59.181Z,1.92
2023-01-13T08:47:07.079Z,1.17
2023-01-13T08:49:39.964Z,2.73
2023-01-13T08:52:12.767Z,1.85
2023-01-13T08:54:45.561Z,2.58
2023-01-13T08:57:19.451Z,2.40
2023-01-13T08:59:52.376Z,2.03
2023-01-13T09:02:27.271Z,2.60
2023-01-13T09:07:33.186Z,2.25
2023-01-13T09:10:07.686Z,2.47
2023-01-13T09:12:58.472Z,3.55
2023-01-13T09:15:31.321Z,1.75
2023-01-13T09:18:05.581Z,2.33
2023-01-13T09:20:38.485Z,2.30
2023-01-13T09:23:11.593Z,2.42
2023-01-13T09:25:44.523Z,1.77
2023-01-13T09:28:17.548Z,1.92
2023-01-13T09:30:50.561Z,2.67
2023-01-13T09:33:42.395Z,2.10
2023-01-13T09:36:15.288Z,2.92
2023-01-13T09:38:50.033Z,2.45
2023-01-13T09:41:43.372Z,2.78
2023-01-13T09:44:22.462Z,2.17
2023-01-13T09:47:00.935Z,2.70
2023-01-13T09:49:40.014Z,2.20
2023-01-13T09:52:19.182Z,3.42
2023-01-13T09:54:58.719Z,3.40
2023-01-13T09:57:37.453Z,3.13
2023-01-13T10:00:13.780Z,2.72
2023-01-13T10:03:05.066Z,2.15
2023-01-13T10:05:42.285Z,2.30
2023-01-13T10:08:21.210Z,2.35
2023-01-13T10:10:57.041Z,2.85
2023-01-13T10:13:30.914Z,2.00
2023-01-13T10:16:18.727Z,2.50
2023-01-13T10:19:04.334Z,2.38
2023-01-13T10:22:07.288Z,2.63
2023-01-13T10:25:09.829Z,2.15
2023-01-13T10:27:46.659Z,2.67
2023-01-13T10:30:23.814Z,3.05
2023-01-13T10:32:58.822Z,2.58
2023-01-13T10:38:26.975Z,3.55
2023-01-13T10:41:01.237Z,1.88
2023-01-13T10:43:34.114Z,3.33
2023-01-13T10:46:11.206Z,3.08
2023-01-13T10:48:52.104Z,4.20
2023-01-13T10:51:27.572Z,2.63
2023-01-13T10:54:04.455Z,2.28
2023-01-13T10:56:37.234Z,2.67
2023-01-13T10:59:15.559Z,4.05
2023-01-13T11:02:04.021Z,2.53
2023-01-13T11:04:43.530Z,2.95
2023-01-13T11:07:30.640Z,2.78
2023-01-13T11:10:17.396Z,2.28
2023-01-13T11:13:00.120Z,3.28
2023-01-13T11:15:40.792Z,3.45
2023-01-13T11:18:23.105Z,2.88
2023-01-13T11:20:57.370Z,2.42
2023-01-13T11:23:35.309Z,2.47
2023-01-13T11:26:15.591Z,2.83
2023-01-13T11:28:54.220Z,2.83
2023-01-13T11:31:33.305Z,2.88
2023-01-13T11:34:15.097Z,2.67
2023-01-13T11:36:52.499Z,3.20
2023-01-13T11:39:30.933Z,3.30
2023-01-13T11:42:22.182Z,2.45
2023-01-13T11:45:04.557Z,2.92
2023-01-13T11:47:37.873Z,2.95
2023-01-13T11:50:18.562Z,3.03
2023-01-13T11:53:05.376Z,2.65
2023-01-13T11:55:50.491Z,2.60
2023-01-13T11:58:51.386Z,3.28
2023-01-13T12:01:39.159Z,2.85
2023-01-13T12:04:26.885Z,2.78
2023-01-13T12:07:12.789Z,2.95
2023-01-13T12:10:05.212Z,2.17
2023-01-13T12:12:49.846Z,1.90
2023-01-13T12:15:57.109Z,2.88
2023-01-13T12:18:42.790Z,2.47
2023-01-13T12:21:23.697Z,3.10
2023-01-13T12:24:05.059Z,2.35
2023-01-13T12:26:41.724Z,3.63
2023-01-13T12:29:18.918Z,2.80
2023-01-13T12:31:53.669Z,2.45
2023-01-13T12:34:36.483Z,3.00
2023-01-13T12:37:16.593Z,3.10
2023-01-13T12:40:12.162Z,2.70
2023-01-13T12:43:07.305Z,2.40
2023-01-13T12:45:40.135Z,2.58
2023-01-13T12:48:48.982Z,3.10
2023-01-13T12:51:23.924Z,2.88
2023-01-13T12:53:57.291Z,2.97
2023-01-13T12:56:42.024Z,2.75
2023-01-13T12:59:48.905Z,2.78
2023-01-13T13:02:33.619Z,3.50
2023-01-13T13:05:42.636Z,3.45
2023-01-13T13:08:21.605Z,2.38
2023-01-13T13:11:07.567Z,2.35
2023-01-13T13:13:44.359Z,1.75
2023-01-13T13:16:46.537Z,1.58
2023-01-13T13:19:48.087Z,1.75
2023-01-13T13:22:44.017Z,1.80
2023-01-13T13:25:26.132Z,1.85
2023-01-13T13:28:18.745Z,1.02
2023-01-13T13:31:09.479Z,1.77
2023-01-13T13:34:12.610Z,1.73
2023-01-13T13:37:16.514Z,1.40
2023-01-13T13:40:08.483Z,1.15
2023-01-13T13:43:02.054Z,1.38
2023-01-13T13:46:03.723Z,1.10
2023-01-13T13:48:37.187Z,1.13
2023-01-13T13:51:24.948Z,1.88
2023-01-13T13:54:02.609Z,1.25
2023-01-13T13:56:44.582Z,1.00
2023-01-13T13:59:20.525Z,1.50
2023-01-13T14:02:01.326Z,1.50
2023-01-13T14:04:37.045Z,1.50
2023-01-13T14:07:20.434Z,1.70
2023-01-13T14:09:56.381Z,1.20
2023-01-13T14:12:38.423Z,1.75
2023-01-13T14:15:25.834Z,1.73
2023-01-13T14:17:59.366Z,1.77
2023-01-13T14:20:34.590Z,3.67
2023-01-13T14:23:08.162Z,3.17
2023-01-13T14:25:47.838Z,1.48
2023-01-13T14:28:32.175Z,2.90
2023-01-13T14:31:07.502Z,2.78
2023-01-13T14:33:44.095Z,3.22
2023-01-13T14:36:20.193Z,2.47
2023-01-13T14:39:26.991Z,3.15
2023-01-13T14:41:59.775Z,2.22
2023-01-13T14:44:36.841Z,3.13
2023-01-13T14:47:20.946Z,2.92
2023-01-13T14:50:00.359Z,2.45
2023-01-13T14:52:34.903Z,2.80
2023-01-13T14:55:28.608Z,3.22
2023-01-13T14:58:25.055Z,2.80
2023-01-13T15:01:31.036Z,3.08
2023-01-13T15:04:26.427Z,3.58
2023-01-13T15:07:01.276Z,3.33
2023-01-13T15:09:40.847Z,2.50
2023-01-13T15:12:17.992Z,2.60
2023-01-13T15:14:52.085Z,3.70
2023-01-13T15:17:26.261Z,3.13
2023-01-13T15:20:00.728Z,2.45
2023-01-13T15:22:33.500Z,2.35
2023-01-13T15:25:09.448Z,2.42
2023-01-13T15:27:44.175Z,2.38
2023-01-13T15:30:18.680Z,2.83
2023-01-13T15:32:54.870Z,2.60
2023-01-13T15:35:30.397Z,2.80
2023-01-13T15:38:03.190Z,2.17
2023-01-13T15:40:35.983Z,2.92
2023-01-13T15:43:31.652Z,2.60
2023-01-13T15:46:28.390Z,3.40
2023-01-13T15:49:09.652Z,1.75
2023-01-13T15:51:42.486Z,2.88
2023-01-13T15:54:15.361Z,2.38
2023-01-13T15:56:48.298Z,2.42
2023-01-13T15:59:25.045Z,2.85
2023-01-13T16:01:57.855Z,3.13
2023-01-13T16:04:32.118Z,3.42
2023-01-13T16:07:14.544Z,3.15
2023-01-13T16:09:47.964Z,3.47
2023-01-13T16:12:21.054Z,3.15
2023-01-13T16:14:53.850Z,2.22
2023-01-13T16:17:29.935Z,3.58
2023-01-13T16:20:04.885Z,2.60
2023-01-13T16:22:37.688Z,2.20
2023-01-13T16:25:17.467Z,3.17
2023-01-13T16:27:51.532Z,2.85
2023-01-13T16:30:26.943Z,2.80
2023-01-13T16:32:59.782Z,2.78
2023-01-13T16:35:35.206Z,3.30
2023-01-13T16:38:08.062Z,3.60
2023-01-13T16:40:40.877Z,3.50
2023-01-13T16:43:14.779Z,2.90
2023-01-13T16:45:47.557Z,2.85
2023-01-13T16:48:22.638Z,2.50
2023-01-13T16:50:57.053Z,2.63
2023-01-13T16:53:30.078Z,3.80
2023-01-13T16:56:03.185Z,2.80
2023-01-13T16:58:35.977Z,2.97
2023-01-13T17:01:13.177Z,2.33
2023-01-13T17:03:48.998Z,2.83
2023-01-13T17:06:28.237Z,2.90
2023-01-13T17:09:02.116Z,2.47
2023-01-13T17:11:35.546Z,2.38
2023-01-13T17:14:19.330Z,2.55
2023-01-13T17:16:54.794Z,2.65
2023-01-13T17:19:27.809Z,3.13
2023-01-13T17:22:02.181Z,1.80
2023-01-13T17:24:35.131Z,2.80
2023-01-13T17:27:07.977Z,3.00
2023-01-13T17:29:40.913Z,2.35
2023-01-13T17:32:16.958Z,2.65
2023-01-13T17:34:50.133Z,2.25
2023-01-13T17:37:24.338Z,2.22
2023-01-13T17:39:57.114Z,3.08
2023-01-13T17:42:29.952Z,1.92
2023-01-13T17:45:03.164Z,2.95
2023-01-13T17:47:37.029Z,2.30
2023-01-13T17:50:11.578Z,3.17
2023-01-13T17:52:45.700Z,2.47
2023-01-13T17:55:20.890Z,3.22
2023-01-13T17:57:53.684Z,2.17
2023-01-13T18:00:26.456Z,2.60
2023-01-13T18:02:59.279Z,2.90
2023-01-13T18:05:33.932Z,3.10
2023-01-13T18:08:09.475Z,2.30
2023-01-13T18:10:42.304Z,1.80
2023-01-13T18:13:15.527Z,2.97
2023-01-13T18:15:48.349Z,2.97
2023-01-13T18:18:21.175Z,3.17
2023-01-13T18:21:12.208Z,1.92
2023-01-13T18:24:03.842Z,2.60
2023-01-13T18:26:54.653Z,2.50
2023-01-13T18:29:28.391Z,2.50
2023-01-13T18:32:01.311Z,2.78
2023-01-13T18:34:34.313Z,2.47
2023-01-13T18:37:08.759Z,2.25
2023-01-13T18:39:43.691Z,2.42
2023-01-13T18:45:08.944Z,2.75
2023-01-13T18:47:43.223Z,4.05
2023-01-13T18:50:17.163Z,2.53
2023-01-13T18:52:50.502Z,2.63
2023-01-13T18:55:25.715Z,4.03
2023-01-13T18:57:59.040Z,3.65
2023-01-13T19:00:36.479Z,2.28
2023-01-13T19:03:09.358Z,2.25
2023-01-13T19:05:42.834Z,2.40
2023-01-13T19:08:16.033Z,2.75
2023-01-13T19:10:52.679Z,2.45
2023-01-13T19:13:25.458Z,3.15
2023-01-13T19:15:58.513Z,3.20
2023-01-13T19:18:31.281Z,2.60
2023-01-13T19:21:04.684Z,2.40
2023-01-13T19:23:37.915Z,2.88
2023-01-13T19:26:13.547Z,2.28
2023-01-13T19:28:46.406Z,1.80
2023-01-13T19:31:20.497Z,2.65
2023-01-13T19:33:53.385Z,2.37
2023-01-13T19:36:26.841Z,2.58
2023-01-13T19:39:00.068Z,3.22
2023-01-13T19:41:51.976Z,6.28
2023-01-13T19:44:42.272Z,6.07
2023-01-13T19:47:15.119Z,3.15
2023-01-13T19:49:47.938Z,5.60
2023-01-13T19:52:20.737Z,3.35
2023-01-13T19:54:53.780Z,3.05
2023-01-13T19:57:27.989Z,2.65
2023-01-13T20:00:00.807Z,3.03
2023-01-13T20:02:36.419Z,2.97
2023-01-13T20:05:10.350Z,2.80
2023-01-13T20:07:43.172Z,4.25
2023-01-13T20:10:17.023Z,3.25
2023-01-13T20:12:51.652Z,3.17
2023-01-13T20:15:24.764Z,3.08
2023-01-13T20:17:58.661Z,3.25
2023-01-13T20:20:31.519Z,6.38
2023-01-13T20:23:04.627Z,3.42
2023-01-13T20:25:44.259Z,3.37
2023-01-13T20:28:19.852Z,3.28
2023-01-13T20:30:53.309Z,3.20
2023-01-13T20:33:26.102Z,3.30
2023-01-13T20:35:59.352Z,3.17
2023-01-13T20:38:37.322Z,3.30
2023-01-13T20:41:24.255Z,2.65
2023-01-13T20:43:58.456Z,2.95
2023-01-13T20:46:31.265Z,4.70
2023-01-13T20:49:04.471Z,4.85
2023-01-13T20:51:37.552Z,4.22
2023-01-13T20:54:10.383Z,2.20
2023-01-13T20:56:43.507Z,1.35
2023-01-13T20:59:18.171Z,1.33
2023-01-13T21:01:51.066Z,1.85
2023-01-13T21:04:23.873Z,1.80
2023-01-13T21:06:57.011Z,2.00
2023-01-13T21:09:30.405Z,1.30
2023-01-13T21:12:21.261Z,1.73
2023-01-13T21:15:21.178Z,1.17
2023-01-13T21:18:11.676Z,2.65
2023-01-13T21:20:44.562Z,2.83
2023-01-13T21:23:17.346Z,2.60
2023-01-13T21:25:50.196Z,2.70
2023-01-13T21:28:22.956Z,3.35
2023-01-13T21:31:02.698Z,3.20
2023-01-13T21:33:35.783Z,1.85
2023-01-13T21:36:09.521Z,2.22
2023-01-13T21:38:42.436Z,2.55
2023-01-13T21:41:35.194Z,3.60
2023-01-13T21:44:32.714Z,3.38
2023-01-13T21:47:33.070Z,3.90
2023-01-13T21:50:09.881Z,3.30
2023-01-13T21:52:43.437Z,3.20
2023-01-13T21:55:28.187Z,2.50
2023-01-13T21:58:07.587Z,3.15
2023-01-13T22:00:43.557Z,2.90
2023-01-13T22:03:18.614Z,3.70
2023-01-13T22:08:26.937Z,3.00
2023-01-13T22:11:03.408Z,3.72
2023-01-13T22:13:53.835Z,3.13
2023-01-13T22:16:26.973Z,2.42
2023-01-13T22:19:01.246Z,4.35
2023-01-13T22:21:34.442Z,2.80
2023-01-13T22:24:08.388Z,3.55
2023-01-13T22:26:41.151Z,2.20
2023-01-13T22:29:13.924Z,3.47
2023-01-13T22:31:46.761Z,3.10
2023-01-13T22:34:21.008Z,4.13
2023-01-13T22:36:53.847Z,3.27
2023-01-13T22:39:27.244Z,3.17
2023-01-13T22:42:00.037Z,3.13
2023-01-13T22:44:33.877Z,4.25
2023-01-13T22:47:08.452Z,3.45
2023-01-13T22:49:47.370Z,3.53
2023-01-13T22:52:22.196Z,3.42
2023-01-13T22:54:55.309Z,3.22
2023-01-13T22:57:36.150Z,2.95
2023-01-13T23:00:18.664Z,3.15
2023-01-13T23:02:51.428Z,3.63
2023-01-13T23:05:27.599Z,3.05
2023-01-13T23:08:00.595Z,2.60
2023-01-13T23:10:33.885Z,2.85
2023-01-13T23:13:06.975Z,3.20
2023-01-13T23:15:39.722Z,3.78
2023-01-13T23:18:12.540Z,3.53
2023-01-13T23:20:47.032Z,3.30
2023-01-13T23:23:20.297Z,2.50
2023-01-13T23:25:55.396Z,3.30
2023-01-13T23:28:28.188Z,3.80
2023-01-13T23:31:01.079Z,3.28
2023-01-13T23:33:34.003Z,4.13
2023-01-13T23:36:11.457Z,4.22
2023-01-13T23:38:44.453Z,3.75
2023-01-13T23:41:19.249Z,2.97
2023-01-13T23:43:53.235Z,3.65
2023-01-13T23:46:26.967Z,3.55
2023-01-13T23:48:59.851Z,3.33
2023-01-13T23:51:33.953Z,5.10
2023-01-13T23:54:06.959Z,3.47
2023-01-13T23:56:40.025Z,3.50
2023-01-13T23:59:12.785Z,2.83
